createdAt,value
2019-04-21T05:50:29.306Z,13.70
2019-04-21T05:52:53.561Z,14.00
2019-04-21T05:55:36.109Z,14.10
2019-04-21T05:58:03.666Z,14.40
2019-04-21T06:00:54.626Z,14.70
2019-04-21T06:03:09.859Z,15.00
2019-04-21T06:05:47.919Z,15.30
2019-04-21T06:08:09.883Z,15.50
2019-04-21T06:10:42.288Z,15.80
2019-04-21T06:13:14.634Z,16.20
2019-04-21T06:15:47.162Z,16.50
2019-04-21T06:18:20.169Z,16.70
2019-04-21T06:20:46.779Z,16.90
2019-04-21T06:23:11.233Z,16.90
2019-04-21T06:25:55.625Z,17.20
2019-04-21T06:28:25.595Z,17.30
2019-04-21T06:33:20.239Z,17.80
2019-04-21T06:39:01.873Z,18.50
2019-04-21T06:41:27.810Z,18.80
2019-04-21T06:43:56.691Z,19.10
2019-04-21T06:46:25.853Z,19.20
2019-04-21T06:48:56.984Z,19.20
2019-04-21T06:51:27.586Z,19.30
2019-04-21T06:53:59.316Z,19.40
2019-04-21T06:56:30.955Z,19.50
2019-04-21T06:58:55.625Z,19.70
2019-04-21T07:01:34.568Z,19.80
2019-04-21T07:04:05.868Z,20.10
2019-04-21T07:06:32.169Z,20.40
2019-04-21T07:09:12.602Z,20.70
2019-04-21T07:11:28.749Z,21.40
2019-04-21T07:14:13.458Z,21.90
2019-04-21T07:16:32.140Z,22.20
2019-04-21T07:19:07.377Z,22.60
2019-04-21T07:21:34.450Z,23.20
2019-04-21T07:24:06.891Z,23.20
2019-04-21T07:29:12.270Z,24.20
2019-04-21T07:31:40.420Z,24.50
2019-04-21T07:36:46.360Z,24.90
2019-04-21T07:39:08.740Z,24.90
2019-04-21T07:41:34.015Z,25.10
2019-04-21T07:44:00.261Z,25.10
2019-04-21T07:46:29.070Z,25.30
2019-04-21T07:49:39.660Z,25.40
2019-04-21T07:52:49.284Z,25.50
2019-04-21T07:57:37.570Z,25.50
2019-04-21T08:02:51.082Z,25.40
2019-04-21T08:05:24.866Z,25.50
2019-04-21T08:10:24.309Z,25.30
2019-04-21T08:12:47.288Z,25.20
2019-04-21T08:15:27.542Z,25.10
2019-04-21T08:17:57.174Z,25.20
2019-04-21T08:20:24.078Z,24.70
2019-04-21T08:22:59.549Z,24.10
2019-04-21T08:25:30.830Z,23.60
2019-04-21T08:27:59.802Z,23.50
2019-04-21T08:30:34.478Z,23.10
2019-04-21T08:33:09.215Z,22.70
2019-04-21T08:38:02.090Z,22.10
2019-04-21T08:40:36.798Z,22.10
2019-04-21T08:43:01.143Z,21.90
2019-04-21T08:45:35.741Z,21.50
2019-04-21T08:48:04.663Z,21.30
2019-04-21T08:50:44.230Z,21.20
2019-04-21T08:53:08.061Z,20.90
2019-04-21T08:56:13.575Z,20.90
2019-04-21T08:58:56.184Z,20.80
2019-04-21T09:01:38.252Z,20.70
2019-04-21T09:04:07.614Z,20.70
2019-04-21T09:06:54.123Z,20.60
2019-04-21T09:09:11.873Z,20.50
2019-04-21T09:11:40.527Z,20.50
2019-04-21T09:14:13.716Z,20.40
2019-04-21T09:16:36.659Z,20.50
2019-04-21T09:19:07.084Z,20.50
2019-04-21T09:21:43.689Z,20.40
2019-04-21T09:24:13.305Z,20.40
2019-04-21T09:26:43.467Z,20.50
2019-04-21T09:29:05.891Z,20.40
2019-04-21T09:31:33.832Z,20.40
2019-04-21T09:34:00.477Z,20.40
2019-04-21T09:36:35.056Z,20.30
2019-04-21T09:39:06.633Z,20.30
2019-04-21T09:41:29.752Z,20.40
2019-04-21T09:44:01.232Z,20.30
2019-04-21T09:46:35.447Z,20.30
2019-04-21T09:49:05.515Z,20.30
2019-04-21T09:51:32.517Z,20.20
2019-04-21T09:54:08.271Z,20.30
2019-04-21T09:56:41.530Z,20.20
2019-04-21T09:59:10.123Z,20.10
2019-04-21T10:01:50.034Z,20.10
2019-04-21T10:04:05.819Z,20.10
2019-04-21T10:06:35.035Z,20.10
2019-04-21T10:09:09.537Z,20.00
2019-04-21T10:11:37.613Z,20.00
2019-04-21T10:14:07.429Z,19.90
2019-04-21T10:16:59.976Z,19.90
2019-04-21T10:19:29.762Z,19.90
2019-04-21T10:22:00.424Z,19.90
2019-04-21T10:24:30.569Z,19.80
2019-04-21T10:27:01.684Z,19.90
2019-04-21T10:29:32.988Z,19.90
2019-04-21T10:32:01.551Z,19.80
2019-04-21T10:34:31.472Z,19.80
2019-04-21T10:37:04.887Z,19.70
2019-04-21T10:39:33.931Z,19.60
2019-04-21T10:42:03.538Z,19.50
2019-04-21T10:44:32.579Z,19.50
2019-04-21T10:47:02.598Z,19.50
2019-04-21T10:49:32.661Z,19.50
2019-04-21T10:52:05.044Z,19.50
2019-04-21T10:54:49.120Z,19.50
2019-04-21T10:57:08.520Z,19.60
2019-04-21T10:59:37.542Z,19.60
2019-04-21T11:02:10.634Z,19.60
2019-04-21T11:04:40.581Z,19.70
2019-04-21T11:07:34.418Z,19.70
2019-04-21T11:10:02.363Z,19.60
2019-04-21T11:12:36.486Z,19.50
2019-04-21T11:15:05.354Z,19.50
2019-04-21T11:17:34.373Z,19.50
2019-04-21T11:20:04.633Z,19.40
2019-04-21T11:22:35.251Z,19.40
2019-04-21T11:25:04.926Z,19.50
2019-04-21T11:27:35.049Z,19.50
2019-04-21T11:30:05.380Z,19.50
2019-04-21T11:32:35.067Z,19.50
2019-04-21T11:35:05.296Z,19.40
2019-04-21T11:37:34.815Z,19.40
2019-04-21T11:40:09.193Z,19.50
2019-04-21T11:42:37.816Z,19.50
2019-04-21T11:45:08.372Z,19.60
2019-04-21T11:47:45.969Z,19.50
2019-04-21T11:50:21.158Z,19.50
2019-04-21T11:52:50.102Z,19.50
2019-04-21T11:55:18.955Z,19.50
2019-04-21T11:57:49.803Z,19.60
2019-04-21T12:00:19.828Z,19.60
2019-04-21T12:02:48.922Z,19.60
2019-04-21T12:05:17.800Z,19.70
2019-04-21T12:07:47.170Z,19.70
2019-04-21T12:10:17.573Z,19.80
2019-04-21T12:12:47.523Z,19.70
2019-04-21T12:15:16.784Z,19.70
2019-04-21T12:17:45.933Z,19.70
2019-04-21T12:20:35.521Z,19.80
2019-04-21T12:23:04.698Z,19.80
2019-04-21T12:25:39.012Z,19.70
2019-04-21T12:28:07.948Z,19.70
2019-04-21T12:30:37.770Z,19.80
2019-04-21T12:33:14.029Z,19.90
2019-04-21T12:35:43.910Z,19.90
2019-04-21T12:38:13.162Z,19.90
2019-04-21T12:40:42.355Z,20.00
2019-04-21T12:43:12.523Z,19.90
2019-04-21T12:45:41.985Z,20.00
2019-04-21T12:48:11.059Z,20.00
2019-04-21T12:50:39.823Z,20.00
2019-04-21T12:53:09.534Z,20.00
2019-04-21T12:55:42.791Z,20.10
2019-04-21T12:58:10.937Z,20.00
2019-04-21T13:00:40.926Z,20.00
2019-04-21T13:03:09.899Z,20.00
2019-04-21T13:05:39.984Z,20.00
2019-04-21T13:08:09.238Z,20.00
2019-04-21T13:10:38.245Z,20.00
2019-04-21T13:13:08.091Z,20.10
2019-04-21T13:15:37.597Z,20.20
2019-04-21T13:18:06.511Z,20.20
2019-04-21T13:20:35.956Z,20.20
2019-04-21T13:23:05.957Z,20.20
2019-04-21T13:25:36.005Z,20.20
2019-04-21T13:28:05.074Z,20.20
2019-04-21T13:30:33.953Z,20.20
2019-04-21T13:33:03.040Z,20.20
2019-04-21T13:35:33.139Z,20.10
2019-04-21T13:38:02.675Z,20.10
2019-04-21T13:41:03.886Z,20.10
2019-04-21T13:43:17.028Z,20.10
2019-04-21T13:45:46.151Z,20.20
2019-04-21T13:48:16.642Z,20.20
2019-04-21T13:50:46.939Z,20.20
2019-04-21T13:53:16.647Z,20.30
2019-04-21T13:55:46.714Z,20.30
2019-04-21T13:58:16.769Z,20.30
2019-04-21T14:00:45.776Z,20.30
2019-04-21T14:03:14.675Z,20.30
2019-04-21T14:05:44.526Z,20.30
2019-04-21T14:08:13.560Z,20.20
2019-04-21T14:10:43.818Z,20.20
2019-04-21T14:13:14.354Z,20.20
2019-04-21T14:15:45.336Z,20.20
2019-04-21T14:18:14.994Z,20.20
2019-04-21T14:20:44.972Z,20.20
2019-04-21T14:23:23.205Z,20.20
2019-04-21T14:25:45.803Z,20.20
2019-04-21T14:28:15.643Z,20.20
2019-04-21T14:30:44.544Z,20.20
2019-04-21T14:33:14.205Z,20.20
2019-04-21T14:35:43.159Z,20.20
2019-04-21T14:38:11.938Z,20.30
2019-04-21T14:40:41.754Z,20.30
2019-04-21T14:43:12.012Z,20.30
2019-04-21T14:45:45.968Z,20.30
2019-04-21T14:48:32.915Z,20.30
2019-04-21T14:51:27.367Z,20.20
2019-04-21T14:54:14.037Z,20.30
2019-04-21T14:56:44.908Z,20.30
2019-04-21T14:59:15.027Z,20.30
2019-04-21T15:01:44.213Z,20.30
2019-04-21T15:04:16.882Z,20.30
2019-04-21T15:06:43.744Z,20.30
2019-04-21T15:09:13.359Z,20.30
2019-04-21T15:11:42.407Z,20.30
2019-04-21T15:14:11.684Z,20.30
2019-04-21T15:16:40.891Z,20.40
2019-04-21T15:19:10.787Z,20.30
2019-04-21T15:21:40.498Z,20.30
2019-04-21T15:24:09.577Z,20.30
2019-04-21T15:26:40.036Z,20.30
2019-04-21T15:29:09.092Z,20.30
2019-04-21T15:31:41.685Z,20.30
2019-04-21T15:34:08.800Z,20.30
2019-04-21T15:36:37.920Z,20.30
2019-04-21T15:39:08.229Z,20.30
2019-04-21T15:41:38.482Z,20.30
2019-04-21T15:44:08.294Z,20.30
2019-04-21T15:46:39.753Z,20.30
2019-04-21T15:49:09.200Z,20.30
2019-04-21T15:51:38.189Z,20.30
2019-04-21T15:54:07.260Z,20.30
2019-04-21T15:57:04.945Z,20.30
2019-04-21T16:00:00.344Z,20.30
2019-04-21T16:02:40.372Z,20.30
2019-04-21T16:05:10.855Z,20.30
2019-04-21T16:07:40.318Z,20.30
2019-04-21T16:10:11.934Z,20.30
2019-04-21T16:12:40.781Z,20.30
2019-04-21T16:15:10.510Z,20.30
2019-04-21T16:17:39.544Z,20.30
2019-04-21T16:20:12.118Z,20.30
2019-04-21T16:22:42.293Z,20.30
2019-04-21T16:25:12.870Z,20.30
2019-04-21T16:27:43.414Z,20.20
2019-04-21T16:30:13.297Z,20.20
2019-04-21T16:32:42.205Z,20.20
2019-04-21T16:35:14.368Z,20.20
2019-04-21T16:37:43.659Z,20.20
2019-04-21T16:40:14.190Z,20.20
2019-04-21T16:42:43.135Z,20.20
2019-04-21T16:45:16.823Z,20.20
2019-04-21T16:47:49.066Z,20.20
2019-04-21T16:50:17.578Z,20.20
2019-04-21T16:52:52.143Z,20.20
2019-04-21T16:55:35.412Z,20.20
2019-04-21T16:58:26.614Z,20.20
2019-04-21T17:01:04.555Z,20.20
2019-04-21T17:03:30.620Z,20.20
2019-04-21T17:06:00.499Z,20.20
2019-04-21T17:08:31.724Z,20.10
2019-04-21T17:11:10.853Z,20.10
2019-04-21T17:13:32.143Z,20.10
2019-04-21T17:16:33.070Z,20.10
2019-04-21T17:18:47.622Z,20.10
2019-04-21T17:21:05.005Z,20.10
2019-04-21T17:23:35.508Z,20.00
2019-04-21T17:26:05.405Z,20.00
2019-04-21T17:28:34.441Z,20.00
2019-04-21T17:31:08.546Z,20.00
2019-04-21T17:33:37.665Z,19.90
2019-04-21T17:36:09.110Z,19.90
2019-04-21T17:38:39.647Z,19.90
2019-04-21T17:41:21.615Z,19.90
2019-04-21T17:43:49.921Z,19.80
2019-04-21T17:46:26.202Z,19.80
2019-04-21T17:48:50.598Z,19.80
2019-04-21T17:51:40.623Z,19.80
2019-04-21T17:54:35.828Z,19.70
2019-04-21T17:57:21.486Z,19.70
2019-04-21T17:59:56.859Z,19.70
2019-04-21T18:02:24.846Z,19.60
2019-04-21T18:04:58.895Z,19.60
2019-04-21T18:07:31.590Z,19.50
2019-04-21T18:10:11.510Z,19.50
2019-04-21T18:12:28.832Z,19.50
2019-04-21T18:14:56.268Z,19.40
2019-04-21T18:17:18.472Z,19.40
2019-04-21T18:19:51.323Z,19.40
2019-04-21T18:22:38.587Z,19.30
2019-04-21T18:25:10.633Z,19.20
2019-04-21T18:27:36.767Z,19.20
2019-04-21T18:30:30.844Z,19.10
2019-04-21T18:33:04.688Z,19.10
2019-04-21T18:35:54.340Z,19.10
2019-04-21T18:38:45.140Z,19.00
2019-04-21T18:41:01.451Z,19.00
2019-04-21T18:43:55.810Z,18.80
2019-04-21T18:46:31.541Z,18.80
2019-04-21T18:49:01.472Z,18.80
2019-04-21T18:51:57.161Z,18.70
2019-04-21T18:54:47.122Z,18.60
2019-04-21T18:57:08.261Z,18.60
2019-04-21T18:59:34.540Z,18.50
2019-04-21T19:02:06.246Z,18.50
2019-04-21T19:04:33.908Z,18.40
2019-04-21T19:07:17.311Z,18.40
2019-04-21T19:10:11.397Z,18.30
2019-04-21T19:12:31.920Z,18.30
2019-04-21T19:14:51.000Z,18.20
2019-04-21T19:20:08.865Z,18.10
2019-04-21T19:22:28.875Z,18.00
2019-04-21T19:24:59.452Z,18.00
2019-04-21T19:27:28.099Z,17.90
2019-04-21T19:30:05.693Z,17.90
2019-04-21T19:32:29.029Z,17.80
2019-04-21T19:34:45.319Z,17.80
2019-04-21T19:37:17.353Z,17.70
2019-04-21T19:39:57.750Z,17.70
2019-04-21T19:42:25.663Z,17.60
2019-04-21T19:44:59.232Z,17.60
2019-04-21T19:47:34.930Z,17.50
2019-04-21T19:50:12.011Z,17.50
2019-04-21T19:52:49.727Z,17.50
2019-04-21T19:59:01.348Z,17.40
2019-04-21T20:01:58.468Z,17.30
2019-04-21T20:04:44.011Z,17.20
2019-04-21T20:07:34.270Z,17.10
2019-04-21T20:13:14.518Z,17.00
2019-04-21T20:15:52.036Z,16.90
2019-04-21T20:18:13.982Z,16.80
2019-04-21T20:20:56.377Z,16.80
2019-04-21T20:23:32.759Z,16.70
2019-04-21T20:26:23.128Z,16.70
2019-04-21T20:29:34.110Z,16.70
2019-04-21T20:32:28.013Z,16.70
2019-04-21T20:35:07.052Z,16.60
2019-04-21T20:38:09.338Z,16.50
2019-04-21T20:40:45.823Z,16.50
2019-04-21T20:43:41.805Z,16.50
2019-04-21T20:46:12.512Z,16.40
2019-04-21T20:48:52.437Z,16.40
2019-04-21T20:51:29.963Z,16.30
2019-04-21T20:54:00.524Z,16.30
2019-04-21T20:56:57.574Z,16.20
2019-04-21T20:59:25.040Z,16.20
2019-04-21T21:02:05.656Z,16.10
2019-04-21T21:04:40.275Z,16.10
2019-04-21T21:08:14.910Z,16.00
2019-04-21T21:11:08.292Z,16.00
2019-04-21T21:14:28.076Z,16.00
2019-04-21T21:18:01.035Z,15.90
2019-04-21T21:20:24.841Z,15.90
2019-04-21T21:23:11.573Z,15.90
2019-04-21T21:28:54.153Z,15.70
2019-04-21T21:38:55.660Z,15.60
2019-04-21T21:41:45.174Z,15.50
2019-04-21T21:44:53.336Z,15.50
2019-04-21T21:47:24.135Z,15.40
2019-04-21T21:50:29.864Z,15.40
2019-04-21T21:53:16.444Z,15.30
2019-04-21T21:55:44.970Z,15.30
2019-04-21T22:09:06.231Z,15.10
2019-04-21T22:11:42.192Z,15.00
2019-04-21T22:14:44.679Z,15.00
2019-04-21T22:17:29.011Z,15.00
2019-04-21T22:20:33.401Z,14.90
2019-04-21T22:22:58.367Z,14.90
2019-04-21T22:25:29.588Z,14.80
2019-04-21T22:27:57.776Z,14.70
2019-04-21T22:30:38.168Z,14.70
2019-04-21T22:33:11.889Z,14.70
2019-04-21T22:35:46.282Z,14.60
2019-04-21T22:38:29.612Z,14.60
2019-04-21T22:40:59.050Z,14.50
2019-04-21T22:43:36.648Z,14.50
2019-04-21T22:46:01.223Z,14.40
2019-04-21T22:48:34.596Z,14.40
2019-04-21T22:51:08.851Z,14.30
2019-04-21T22:53:44.549Z,14.30
2019-04-21T22:56:19.791Z,14.20
2019-04-21T22:58:46.529Z,14.20
2019-04-21T23:01:24.130Z,14.20
2019-04-21T23:03:55.314Z,14.10
2019-04-21T23:06:35.650Z,14.10
2019-04-21T23:09:19.161Z,14.00
2019-04-21T23:11:59.544Z,14.00
2019-04-21T23:14:24.009Z,13.90
2019-04-21T23:17:14.869Z,13.90
2019-04-21T23:19:44.890Z,13.80
2019-04-21T23:22:17.316Z,13.80
2019-04-21T23:24:53.109Z,13.80
2019-04-21T23:27:14.128Z,13.70
2019-04-21T23:29:59.803Z,13.70
2019-04-21T23:32:25.934Z,13.70
2019-04-21T23:34:43.442Z,13.60
2019-04-21T23:37:19.542Z,13.60
2019-04-21T23:39:45.493Z,13.50
2019-04-21T23:42:23.702Z,13.40
2019-04-21T23:44:55.153Z,13.40
2019-04-21T23:47:37.375Z,13.30
2019-04-21T23:50:05.582Z,13.30
2019-04-21T23:52:29.880Z,13.30
2019-04-21T23:55:00.989Z,13.20
2019-04-21T23:57:37.931Z,13.20
